Погода Манычскийна 2 недели

Республика Калмыкия, Россия

25 июля-07 августа
  • 25июля
    Сегодня
    +17°
    +29°
    Ясно и безоблачно
    ВремяПогодаТемператураВлажностьДавлениеВетер, м/сВероятность осадков
    00:00Ясно и безоблачно+19°C74 %751 мм2.0 м/с2 %
    03:00Ясно и безоблачно+17°C86 %751 мм1.4 м/с2 %
    06:00Ясно и безоблачно+18°C84 %751 мм1.5 м/с2 %
    09:00Ясно и безоблачно+24°C50 %752 мм1.6 м/с2 %
    12:00Ясно и безоблачно+27°C36 %751 мм2.0 м/с2 %
    15:00Ясно и безоблачно+29°C28 %750 мм1.8 м/с2 %
    18:00Ясно и безоблачно+28°C30 %750 мм3.7 м/с2 %
    21:00Ясно и безоблачно+21°C51 %751 мм2.1 м/с2 %
  • 26июля
    Пятница
    +20°
    +33°
    Облачно с прояснениями
    ВремяПогодаТемператураВлажностьДавлениеВетер, м/сВероятность осадков
    00:00Ясно и безоблачно+20°C60 %751 мм1.9 м/с2 %
    03:00Ясно и безоблачно+18°C70 %751 мм2.0 м/с2 %
    06:00Ясно и безоблачно+20°C70 %751 мм0.2 м/с2 %
    09:00Ясно и безоблачно+26°C42 %752 мм1.1 м/с2 %
    12:00Облачно с прояснениями+30°C29 %751 мм2.1 м/с2 %
    15:00Облачно с прояснениями+32°C25 %751 мм1.6 м/с2 %
    18:00Облачно с прояснениями+30°C30 %751 мм1.5 м/с2 %
    21:00Облачно с прояснениями+25°C36 %752 мм5.3 м/с2 %
  • 27июля
    Суббота
    +17°
    +32°
    Небольшая облачность
    ВремяПогодаТемператураВлажностьДавлениеВетер, м/сВероятность осадков
    00:00Облачно с прояснениями+24°C41 %753 мм4.8 м/с2 %
    03:00Небольшая облачность+22°C48 %754 мм4.0 м/с2 %
    06:00Облачно с прояснениями+21°C50 %755 мм3.8 м/с2 %
    09:00Небольшая облачность+27°C35 %756 мм4.4 м/с2 %
    12:00Облачно с прояснениями+31°C23 %756 мм4.5 м/с2 %
    15:00Небольшая облачность+32°C20 %756 мм4.0 м/с2 %
    18:00Практически безоблачно+30°C22 %756 мм3.5 м/с2 %
    21:00Ясно и безоблачно+24°C30 %758 мм4.5 м/с2 %
  • 28июля
    Воскресенье
    +18°
    +32°
    Практически безоблачно
    ВремяПогодаТемператураВлажностьДавлениеВетер, м/сВероятность осадков
    00:00Ясно и безоблачно+21°C44 %758 мм2.5 м/с2 %
    03:00Ясно и безоблачно+19°C58 %759 мм2.1 м/с2 %
    06:00Ясно и безоблачно+20°C62 %759 мм1.6 м/с2 %
    09:00Ясно и безоблачно+27°C37 %760 мм1.6 м/с2 %
    12:00Ясно и безоблачно+31°C23 %760 мм2.8 м/с2 %
    15:00Практически безоблачно+32°C21 %759 мм1.0 м/с2 %
    18:00Ясно и безоблачно+31°C22 %758 мм1.4 м/с2 %
    21:00Ясно и безоблачно+24°C33 %758 мм2.1 м/с2 %
  • 29июля
    Понедельник
    +20°
    +35°
    Ясно и безоблачно
    ВремяПогодаТемператураВлажностьДавлениеВетер, м/сВероятность осадков
    00:00Ясно и безоблачно+22°C40 %758 мм2.5 м/с2 %
    03:00Ясно и безоблачно+20°C45 %758 мм2.0 м/с2 %
    06:00Ясно и безоблачно+20°C47 %758 мм2.0 м/с2 %
    09:00Ясно и безоблачно+29°C26 %758 мм1.9 м/с2 %
    12:00Ясно и безоблачно+34°C19 %756 мм2.3 м/с3 %
    15:00Ясно и безоблачно+35°C19 %755 мм3.2 м/с3 %
    18:00Ясно и безоблачно+34°C21 %753 мм2.5 м/с2 %
    21:00Ясно и безоблачно+28°C29 %754 мм3.3 м/с2 %
Мы используем cookies
Соглашаюсь